sensor_id;sensor_type;location;lat;lon;timestamp;P1;durP1;ratioP1;P2;durP2;ratioP2
75744;SDS011;74462;51.366;-0.222;2024-01-06T00:00:19;7.70;;;6.90;;
75744;SDS011;74462;51.366;-0.222;2024-01-06T00:01:24;7.90;;;7.10;;
75744;SDS011;74462;51.366;-0.222;2024-01-06T00:02:29;8.40;;;6.60;;
75744;SDS011;74462;51.366;-0.222;2024-01-06T00:03:33;9.50;;;8.00;;
75744;SDS011;74462;51.366;-0.222;2024-01-06T00:04:38;7.90;;;6.30;;
75744;SDS011;74462;51.366;-0.222;2024-01-06T00:05:42;8.80;;;7.90;;
75744;SDS011;74462;51.366;-0.222;2024-01-06T00:06:47;9.20;;;6.40;;
75744;SDS011;74462;51.366;-0.222;2024-01-06T00:07:51;7.00;;;6.30;;
75744;SDS011;74462;51.366;-0.222;2024-01-06T00:08:56;10.90;;;8.30;;
75744;SDS011;74462;51.366;-0.222;2024-01-06T00:10:00;8.40;;;7.20;;
75744;SDS011;74462;51.366;-0.222;2024-01-06T00:11:05;9.90;;;6.40;;
75744;SDS011;74462;51.366;-0.222;2024-01-06T00:12:10;8.50;;;6.60;;
75744;SDS011;74462;51.366;-0.222;2024-01-06T00:13:14;8.50;;;6.30;;
75744;SDS011;74462;51.366;-0.222;2024-01-06T00:14:19;9.50;;;7.40;;
75744;SDS011;74462;51.366;-0.222;2024-01-06T00:15:23;10.20;;;7.40;;
75744;SDS011;74462;51.366;-0.222;2024-01-06T00:16:28;7.50;;;6.00;;
75744;SDS011;74462;51.366;-0.222;2024-01-06T00:17:32;6.70;;;5.90;;
75744;SDS011;74462;51.366;-0.222;2024-01-06T00:18:37;8.40;;;5.70;;
75744;SDS011;74462;51.366;-0.222;2024-01-06T00:19:41;8.30;;;5.80;;
75744;SDS011;74462;51.366;-0.222;2024-01-06T00:20:48;8.70;;;7.10;;
75744;SDS011;74462;51.366;-0.222;2024-01-06T00:21:53;9.50;;;6.00;;
75744;SDS011;74462;51.366;-0.222;2024-01-06T00:22:57;7.20;;;5.70;;
75744;SDS011;74462;51.366;-0.222;2024-01-06T00:24:02;7.50;;;6.70;;
75744;SDS011;74462;51.366;-0.222;2024-01-06T00:25:08;8.70;;;5.80;;
75744;SDS011;74462;51.366;-0.222;2024-01-06T00:26:12;7.10;;;5.70;;
75744;SDS011;74462;51.366;-0.222;2024-01-06T00:27:17;7.30;;;5.30;;
75744;SDS011;74462;51.366;-0.222;2024-01-06T00:28:21;9.30;;;8.30;;
75744;SDS011;74462;51.366;-0.222;2024-01-06T00:29:26;8.50;;;6.40;;
75744;SDS011;74462;51.366;-0.222;2024-01-06T00:30:30;9.60;;;7.80;;
75744;SDS011;74462;51.366;-0.222;2024-01-06T00:31:34;9.70;;;8.70;;
75744;SDS011;74462;51.366;-0.222;2024-01-06T00:32:39;7.00;;;6.30;;
75744;SDS011;74462;51.366;-0.222;2024-01-06T00:33:43;8.30;;;7.40;;
75744;SDS011;74462;51.366;-0.222;2024-01-06T00:34:48;7.80;;;6.80;;
75744;SDS011;74462;51.366;-0.222;2024-01-06T00:35:52;8.00;;;6.60;;
75744;SDS011;74462;51.366;-0.222;2024-01-06T00:36:57;9.20;;;6.30;;
75744;SDS011;74462;51.366;-0.222;2024-01-06T00:38:02;7.70;;;5.70;;
75744;SDS011;74462;51.366;-0.222;2024-01-06T00:39:07;7.20;;;5.80;;
75744;SDS011;74462;51.366;-0.222;2024-01-06T00:40:12;10.60;;;7.40;;
75744;SDS011;74462;51.366;-0.222;2024-01-06T00:41:17;7.50;;;6.70;;
75744;SDS011;74462;51.366;-0.222;2024-01-06T00:42:21;8.10;;;6.40;;
75744;SDS011;74462;51.366;-0.222;2024-01-06T00:43:26;9.90;;;7.20;;
75744;SDS011;74462;51.366;-0.222;2024-01-06T00:44:30;8.70;;;7.80;;
75744;SDS011;74462;51.366;-0.222;2024-01-06T00:45:35;10.30;;;8.00;;
75744;SDS011;74462;51.366;-0.222;2024-01-06T00:46:40;9.00;;;6.30;;
75744;SDS011;74462;51.366;-0.222;2024-01-06T00:47:44;9.10;;;6.60;;
75744;SDS011;74462;51.366;-0.222;2024-01-06T00:48:49;9.70;;;7.90;;
75744;SDS011;74462;51.366;-0.222;2024-01-06T00:49:53;9.30;;;6.70;;
75744;SDS011;74462;51.366;-0.222;2024-01-06T00:50:58;7.40;;;5.70;;
75744;SDS011;74462;51.366;-0.222;2024-01-06T00:52:02;8.60;;;6.80;;
75744;SDS011;74462;51.366;-0.222;2024-01-06T00:53:08;8.90;;;6.60;;
75744;SDS011;74462;51.366;-0.222;2024-01-06T00:54:14;7.40;;;6.50;;
75744;SDS011;74462;51.366;-0.222;2024-01-06T00:55:19;9.40;;;7.60;;
75744;SDS011;74462;51.366;-0.222;2024-01-06T00:56:23;10.10;;;6.40;;
75744;SDS011;74462;51.366;-0.222;2024-01-06T00:57:28;8.10;;;6.80;;
75744;SDS011;74462;51.366;-0.222;2024-01-06T00:58:33;9.30;;;6.20;;
75744;SDS011;74462;51.366;-0.222;2024-01-06T00:59:37;9.50;;;8.20;;
75744;SDS011;74462;51.366;-0.222;2024-01-06T01:00:42;10.10;;;6.60;;
75744;SDS011;74462;51.366;-0.222;2024-01-06T01:01:46;9.70;;;6.60;;
75744;SDS011;74462;51.366;-0.222;2024-01-06T01:02:51;8.70;;;6.30;;
75744;SDS011;74462;51.366;-0.222;2024-01-06T01:03:55;8.50;;;7.60;;
75744;SDS011;74462;51.366;-0.222;2024-01-06T01:05:00;9.20;;;6.10;;
75744;SDS011;74462;51.366;-0.222;2024-01-06T01:06:05;9.10;;;6.70;;
75744;SDS011;74462;51.366;-0.222;2024-01-06T01:07:09;8.70;;;7.10;;
75744;SDS011;74462;51.366;-0.222;2024-01-06T01:08:14;8.90;;;7.00;;
75744;SDS011;74462;51.366;-0.222;2024-01-06T01:09:19;8.50;;;6.50;;
75744;SDS011;74462;51.366;-0.222;2024-01-06T01:10:23;8.80;;;6.80;;
75744;SDS011;74462;51.366;-0.222;2024-01-06T01:11:28;7.70;;;6.40;;
75744;SDS011;74462;51.366;-0.222;2024-01-06T01:12:33;8.90;;;6.80;;
75744;SDS011;74462;51.366;-0.222;2024-01-06T01:13:37;8.30;;;6.80;;
75744;SDS011;74462;51.366;-0.222;2024-01-06T01:14:42;9.30;;;7.00;;
75744;SDS011;74462;51.366;-0.222;2024-01-06T01:15:46;7.60;;;6.00;;
75744;SDS011;74462;51.366;-0.222;2024-01-06T01:16:51;9.90;;;6.90;;
75744;SDS011;74462;51.366;-0.222;2024-01-06T01:17:56;10.20;;;7.00;;
75744;SDS011;74462;51.366;-0.222;2024-01-06T01:19:00;12.00;;;10.80;;
75744;SDS011;74462;51.366;-0.222;2024-01-06T01:20:06;10.40;;;7.90;;
75744;SDS011;74462;51.366;-0.222;2024-01-06T01:21:11;8.30;;;6.90;;
75744;SDS011;74462;51.366;-0.222;2024-01-06T01:22:16;10.40;;;8.00;;
75744;SDS011;74462;51.366;-0.222;2024-01-06T01:23:21;9.00;;;6.40;;
75744;SDS011;74462;51.366;-0.222;2024-01-06T01:24:25;8.00;;;7.00;;
75744;SDS011;74462;51.366;-0.222;2024-01-06T01:25:30;9.70;;;7.20;;
75744;SDS011;74462;51.366;-0.222;2024-01-06T01:26:34;10.60;;;7.90;;
75744;SDS011;74462;51.366;-0.222;2024-01-06T01:27:39;12.90;;;10.90;;
75744;SDS011;74462;51.366;-0.222;2024-01-06T01:28:44;10.90;;;9.80;;
75744;SDS011;74462;51.366;-0.222;2024-01-06T01:29:48;10.30;;;7.90;;
75744;SDS011;74462;51.366;-0.222;2024-01-06T01:30:54;10.40;;;7.70;;
75744;SDS011;74462;51.366;-0.222;2024-01-06T01:31:58;9.90;;;7.10;;
75744;SDS011;74462;51.366;-0.222;2024-01-06T01:33:04;11.30;;;7.60;;
75744;SDS011;74462;51.366;-0.222;2024-01-06T01:34:08;9.80;;;7.80;;
75744;SDS011;74462;51.366;-0.222;2024-01-06T01:35:13;10.20;;;7.40;;
75744;SDS011;74462;51.366;-0.222;2024-01-06T01:36:17;9.30;;;8.30;;
75744;SDS011;74462;51.366;-0.222;2024-01-06T01:37:22;12.50;;;9.00;;
75744;SDS011;74462;51.366;-0.222;2024-01-06T01:38:26;8.90;;;6.20;;
75744;SDS011;74462;51.366;-0.222;2024-01-06T01:39:33;8.20;;;6.70;;
75744;SDS011;74462;51.366;-0.222;2024-01-06T01:40:38;10.00;;;8.10;;
75744;SDS011;74462;51.366;-0.222;2024-01-06T01:41:43;10.60;;;8.60;;
75744;SDS011;74462;51.366;-0.222;2024-01-06T01:42:47;9.30;;;6.90;;
75744;SDS011;74462;51.366;-0.222;2024-01-06T01:43:52;12.00;;;7.10;;
75744;SDS011;74462;51.366;-0.222;2024-01-06T01:44:59;12.90;;;11.70;;
75744;SDS011;74462;51.366;-0.222;2024-01-06T01:46:04;10.70;;;7.30;;
75744;SDS011;74462;51.366;-0.222;2024-01-06T01:47:09;9.00;;;6.80;;
75744;SDS011;74462;51.366;-0.222;2024-01-06T01:48:14;10.20;;;8.60;;
75744;SDS011;74462;51.366;-0.222;2024-01-06T01:49:19;10.20;;;7.30;;
75744;SDS011;74462;51.366;-0.222;2024-01-06T01:50:24;10.30;;;8.40;;
75744;SDS011;74462;51.366;-0.222;2024-01-06T01:51:32;10.90;;;8.60;;
75744;SDS011;74462;51.366;-0.222;2024-01-06T01:52:39;9.90;;;8.10;;
75744;SDS011;74462;51.366;-0.222;2024-01-06T01:53:45;11.40;;;8.50;;
75744;SDS011;74462;51.366;-0.222;2024-01-06T01:54:50;8.60;;;6.60;;
75744;SDS011;74462;51.366;-0.222;2024-01-06T01:55:56;10.20;;;7.90;;
75744;SDS011;74462;51.366;-0.222;2024-01-06T01:57:01;9.70;;;6.70;;
75744;SDS011;74462;51.366;-0.222;2024-01-06T01:58:07;10.20;;;7.20;;
75744;SDS011;74462;51.366;-0.222;2024-01-06T01:59:13;8.70;;;6.90;;
75744;SDS011;74462;51.366;-0.222;2024-01-06T02:00:20;9.70;;;7.10;;
75744;SDS011;74462;51.366;-0.222;2024-01-06T02:01:25;10.60;;;9.00;;
75744;SDS011;74462;51.366;-0.222;2024-01-06T02:02:29;11.10;;;7.60;;
75744;SDS011;74462;51.366;-0.222;2024-01-06T02:03:34;10.80;;;7.00;;
75744;SDS011;74462;51.366;-0.222;2024-01-06T02:04:39;10.30;;;7.10;;
75744;SDS011;74462;51.366;-0.222;2024-01-06T02:05:45;10.20;;;8.00;;
75744;SDS011;74462;51.366;-0.222;2024-01-06T02:06:49;10.40;;;8.80;;
75744;SDS011;74462;51.366;-0.222;2024-01-06T02:07:54;10.50;;;8.10;;
75744;SDS011;74462;51.366;-0.222;2024-01-06T02:08:59;10.90;;;9.00;;
75744;SDS011;74462;51.366;-0.222;2024-01-06T02:10:05;12.40;;;10.80;;
75744;SDS011;74462;51.366;-0.222;2024-01-06T02:11:12;12.10;;;8.00;;
75744;SDS011;74462;51.366;-0.222;2024-01-06T02:12:16;12.90;;;10.10;;
75744;SDS011;74462;51.366;-0.222;2024-01-06T02:13:21;10.60;;;8.10;;
75744;SDS011;74462;51.366;-0.222;2024-01-06T02:14:26;10.70;;;8.30;;
75744;SDS011;74462;51.366;-0.222;2024-01-06T02:15:30;10.30;;;8.30;;
75744;SDS011;74462;51.366;-0.222;2024-01-06T02:16:36;9.70;;;6.80;;
75744;SDS011;74462;51.366;-0.222;2024-01-06T02:17:40;10.80;;;8.30;;
75744;SDS011;74462;51.366;-0.222;2024-01-06T02:18:45;12.00;;;10.40;;
75744;SDS011;74462;51.366;-0.222;2024-01-06T02:19:49;11.60;;;7.90;;
75744;SDS011;74462;51.366;-0.222;2024-01-06T02:20:55;9.90;;;8.10;;
75744;SDS011;74462;51.366;-0.222;2024-01-06T02:22:02;10.30;;;7.30;;
75744;SDS011;74462;51.366;-0.222;2024-01-06T02:23:07;11.60;;;9.90;;
75744;SDS011;74462;51.366;-0.222;2024-01-06T02:24:11;9.20;;;7.40;;
75744;SDS011;74462;51.366;-0.222;2024-01-06T02:25:16;13.40;;;8.80;;
75744;SDS011;74462;51.366;-0.222;2024-01-06T02:26:22;9.50;;;7.90;;
75744;SDS011;74462;51.366;-0.222;2024-01-06T02:27:27;11.40;;;7.60;;
75744;SDS011;74462;51.366;-0.222;2024-01-06T02:28:33;11.70;;;9.00;;
75744;SDS011;74462;51.366;-0.222;2024-01-06T02:29:38;12.80;;;9.10;;
75744;SDS011;74462;51.366;-0.222;2024-01-06T02:30:42;10.40;;;7.80;;
75744;SDS011;74462;51.366;-0.222;2024-01-06T02:31:47;11.00;;;8.20;;
75744;SDS011;74462;51.366;-0.222;2024-01-06T02:32:54;12.80;;;9.60;;
75744;SDS011;74462;51.366;-0.222;2024-01-06T02:33:58;11.30;;;9.40;;
75744;SDS011;74462;51.366;-0.222;2024-01-06T02:35:03;11.40;;;8.40;;
75744;SDS011;74462;51.366;-0.222;2024-01-06T02:36:08;11.50;;;8.70;;
75744;SDS011;74462;51.366;-0.222;2024-01-06T02:37:12;10.80;;;8.10;;
75744;SDS011;74462;51.366;-0.222;2024-01-06T02:38:17;12.40;;;7.60;;
75744;SDS011;74462;51.366;-0.222;2024-01-06T02:39:21;13.20;;;9.20;;
75744;SDS011;74462;51.366;-0.222;2024-01-06T02:40:26;12.60;;;8.70;;
75744;SDS011;74462;51.366;-0.222;2024-01-06T02:41:31;10.60;;;8.80;;
75744;SDS011;74462;51.366;-0.222;2024-01-06T02:42:35;9.70;;;7.50;;
75744;SDS011;74462;51.366;-0.222;2024-01-06T02:43:40;10.40;;;9.20;;
75744;SDS011;74462;51.366;-0.222;2024-01-06T02:44:44;12.20;;;11.00;;
75744;SDS011;74462;51.366;-0.222;2024-01-06T02:45:49;10.90;;;8.30;;
75744;SDS011;74462;51.366;-0.222;2024-01-06T02:46:53;10.80;;;8.50;;
75744;SDS011;74462;51.366;-0.222;2024-01-06T02:47:58;10.70;;;7.40;;
75744;SDS011;74462;51.366;-0.222;2024-01-06T02:49:02;13.70;;;8.70;;
75744;SDS011;74462;51.366;-0.222;2024-01-06T02:50:07;12.70;;;10.60;;
75744;SDS011;74462;51.366;-0.222;2024-01-06T02:51:12;11.70;;;8.40;;
75744;SDS011;74462;51.366;-0.222;2024-01-06T02:52:16;11.80;;;10.20;;
75744;SDS011;74462;51.366;-0.222;2024-01-06T02:53:21;11.70;;;9.70;;
75744;SDS011;74462;51.366;-0.222;2024-01-06T02:54:26;11.10;;;8.30;;
75744;SDS011;74462;51.366;-0.222;2024-01-06T02:55:30;14.10;;;9.50;;
75744;SDS011;74462;51.366;-0.222;2024-01-06T02:56:35;14.20;;;9.40;;
75744;SDS011;74462;51.366;-0.222;2024-01-06T06:20:20;5.10;;;3.60;;
75744;SDS011;74462;51.366;-0.222;2024-01-06T06:21:24;4.10;;;3.10;;
75744;SDS011;74462;51.366;-0.222;2024-01-06T06:22:29;4.30;;;3.70;;
75744;SDS011;74462;51.366;-0.222;2024-01-06T06:23:33;5.30;;;3.40;;
75744;SDS011;74462;51.366;-0.222;2024-01-06T06:34:33;3.30;;;2.50;;
75744;SDS011;74462;51.366;-0.222;2024-01-06T06:35:38;3.90;;;2.90;;
75744;SDS011;74462;51.366;-0.222;2024-01-06T06:36:42;4.30;;;3.60;;
75744;SDS011;74462;51.366;-0.222;2024-01-06T06:37:47;3.60;;;3.00;;
75744;SDS011;74462;51.366;-0.222;2024-01-06T06:38:52;4.10;;;3.80;;
75744;SDS011;74462;51.366;-0.222;2024-01-06T06:39:59;4.40;;;3.00;;
75744;SDS011;74462;51.366;-0.222;2024-01-06T06:41:04;5.20;;;3.20;;
75744;SDS011;74462;51.366;-0.222;2024-01-06T06:42:08;5.00;;;3.30;;
75744;SDS011;74462;51.366;-0.222;2024-01-06T06:43:14;4.10;;;3.10;;
75744;SDS011;74462;51.366;-0.222;2024-01-06T06:44:18;4.40;;;3.10;;
75744;SDS011;74462;51.366;-0.222;2024-01-06T06:45:23;5.30;;;3.20;;
75744;SDS011;74462;51.366;-0.222;2024-01-06T06:46:27;4.50;;;3.40;;
75744;SDS011;74462;51.366;-0.222;2024-01-06T06:47:31;3.60;;;3.20;;
75744;SDS011;74462;51.366;-0.222;2024-01-06T06:48:36;5.20;;;2.80;;
75744;SDS011;74462;51.366;-0.222;2024-01-06T06:49:41;3.20;;;2.70;;
75744;SDS011;74462;51.366;-0.222;2024-01-06T06:50:46;4.30;;;2.50;;
75744;SDS011;74462;51.366;-0.222;2024-01-06T06:51:51;4.80;;;3.00;;
75744;SDS011;74462;51.366;-0.222;2024-01-06T06:52:57;4.00;;;3.60;;
75744;SDS011;74462;51.366;-0.222;2024-01-06T06:54:02;3.70;;;3.20;;
75744;SDS011;74462;51.366;-0.222;2024-01-06T06:55:08;3.20;;;2.50;;
75744;SDS011;74462;51.366;-0.222;2024-01-06T06:56:13;4.60;;;3.60;;
75744;SDS011;74462;51.366;-0.222;2024-01-06T06:57:18;3.30;;;2.20;;
75744;SDS011;74462;51.366;-0.222;2024-01-06T06:58:23;4.00;;;2.40;;
75744;SDS011;74462;51.366;-0.222;2024-01-06T06:59:27;3.90;;;2.60;;
75744;SDS011;74462;51.366;-0.222;2024-01-06T07:00:32;5.10;;;3.20;;
75744;SDS011;74462;51.366;-0.222;2024-01-06T07:01:37;3.90;;;3.10;;
75744;SDS011;74462;51.366;-0.222;2024-01-06T07:02:41;2.40;;;2.20;;
75744;SDS011;74462;51.366;-0.222;2024-01-06T07:03:46;4.30;;;2.70;;
75744;SDS011;74462;51.366;-0.222;2024-01-06T07:04:50;3.40;;;2.90;;
75744;SDS011;74462;51.366;-0.222;2024-01-06T07:05:55;3.80;;;3.00;;
75744;SDS011;74462;51.366;-0.222;2024-01-06T07:06:59;5.80;;;3.60;;
75744;SDS011;74462;51.366;-0.222;2024-01-06T07:08:04;5.10;;;3.00;;
75744;SDS011;74462;51.366;-0.222;2024-01-06T07:09:09;3.60;;;2.70;;
75744;SDS011;74462;51.366;-0.222;2024-01-06T07:10:13;4.70;;;3.50;;
75744;SDS011;74462;51.366;-0.222;2024-01-06T07:11:19;3.20;;;2.70;;
75744;SDS011;74462;51.366;-0.222;2024-01-06T07:12:24;3.00;;;2.70;;
75744;SDS011;74462;51.366;-0.222;2024-01-06T07:13:28;3.20;;;2.80;;
75744;SDS011;74462;51.366;-0.222;2024-01-06T07:14:33;4.90;;;2.70;;
75744;SDS011;74462;51.366;-0.222;2024-01-06T07:15:38;5.00;;;2.80;;
75744;SDS011;74462;51.366;-0.222;2024-01-06T07:16:43;3.60;;;2.80;;
75744;SDS011;74462;51.366;-0.222;2024-01-06T07:17:47;4.10;;;3.20;;
75744;SDS011;74462;51.366;-0.222;2024-01-06T07:18:52;2.90;;;2.60;;
75744;SDS011;74462;51.366;-0.222;2024-01-06T07:19:56;4.30;;;3.30;;
75744;SDS011;74462;51.366;-0.222;2024-01-06T07:21:01;5.50;;;4.10;;
75744;SDS011;74462;51.366;-0.222;2024-01-06T07:22:07;3.30;;;2.80;;
75744;SDS011;74462;51.366;-0.222;2024-01-06T07:23:13;7.70;;;3.50;;
75744;SDS011;74462;51.366;-0.222;2024-01-06T07:24:17;4.40;;;3.80;;
75744;SDS011;74462;51.366;-0.222;2024-01-06T07:25:22;3.60;;;2.50;;
75744;SDS011;74462;51.366;-0.222;2024-01-06T07:26:26;4.40;;;3.20;;
75744;SDS011;74462;51.366;-0.222;2024-01-06T07:27:31;5.20;;;2.90;;
75744;SDS011;74462;51.366;-0.222;2024-01-06T07:28:35;4.40;;;3.10;;
75744;SDS011;74462;51.366;-0.222;2024-01-06T07:29:40;5.20;;;4.40;;
75744;SDS011;74462;51.366;-0.222;2024-01-06T07:30:44;5.60;;;5.00;;
75744;SDS011;74462;51.366;-0.222;2024-01-06T07:31:49;4.20;;;3.20;;
75744;SDS011;74462;51.366;-0.222;2024-01-06T07:32:53;4.90;;;3.50;;
75744;SDS011;74462;51.366;-0.222;2024-01-06T07:33:57;6.20;;;4.40;;
75744;SDS011;74462;51.366;-0.222;2024-01-06T07:35:02;5.40;;;4.00;;
75744;SDS011;74462;51.366;-0.222;2024-01-06T07:36:07;5.70;;;4.30;;
75744;SDS011;74462;51.366;-0.222;2024-01-06T07:37:12;4.30;;;3.70;;
75744;SDS011;74462;51.366;-0.222;2024-01-06T07:38:17;4.20;;;3.30;;
75744;SDS011;74462;51.366;-0.222;2024-01-06T07:39:21;8.10;;;4.10;;
75744;SDS011;74462;51.366;-0.222;2024-01-06T07:40:26;5.20;;;3.10;;
75744;SDS011;74462;51.366;-0.222;2024-01-06T07:41:31;4.80;;;3.00;;
75744;SDS011;74462;51.366;-0.222;2024-01-06T07:42:35;4.50;;;3.10;;
75744;SDS011;74462;51.366;-0.222;2024-01-06T07:43:39;4.40;;;3.50;;
75744;SDS011;74462;51.366;-0.222;2024-01-06T07:44:44;4.70;;;3.00;;
75744;SDS011;74462;51.366;-0.222;2024-01-06T07:45:48;3.80;;;2.90;;
75744;SDS011;74462;51.366;-0.222;2024-01-06T07:46:53;4.70;;;3.40;;
75744;SDS011;74462;51.366;-0.222;2024-01-06T07:47:57;4.90;;;2.90;;
75744;SDS011;74462;51.366;-0.222;2024-01-06T07:49:03;5.60;;;3.30;;
75744;SDS011;74462;51.366;-0.222;2024-01-06T07:50:08;6.30;;;3.00;;
75744;SDS011;74462;51.366;-0.222;2024-01-06T07:51:13;4.10;;;3.00;;
75744;SDS011;74462;51.366;-0.222;2024-01-06T07:52:18;5.20;;;3.30;;
75744;SDS011;74462;51.366;-0.222;2024-01-06T07:53:23;4.00;;;3.30;;
75744;SDS011;74462;51.366;-0.222;2024-01-06T07:54:27;4.40;;;3.10;;
75744;SDS011;74462;51.366;-0.222;2024-01-06T07:55:32;5.00;;;3.40;;
75744;SDS011;74462;51.366;-0.222;2024-01-06T07:56:37;3.70;;;2.90;;
75744;SDS011;74462;51.366;-0.222;2024-01-06T07:57:41;4.20;;;3.80;;
75744;SDS011;74462;51.366;-0.222;2024-01-06T07:58:46;3.40;;;2.50;;
75744;SDS011;74462;51.366;-0.222;2024-01-06T07:59:50;3.80;;;2.20;;
75744;SDS011;74462;51.366;-0.222;2024-01-06T08:00:55;2.50;;;2.10;;
75744;SDS011;74462;51.366;-0.222;2024-01-06T08:01:59;4.90;;;4.50;;
75744;SDS011;74462;51.366;-0.222;2024-01-06T08:03:04;9.10;;;5.00;;
75744;SDS011;74462;51.366;-0.222;2024-01-06T08:04:08;3.30;;;3.10;;
75744;SDS011;74462;51.366;-0.222;2024-01-06T08:05:13;3.20;;;2.80;;
75744;SDS011;74462;51.366;-0.222;2024-01-06T08:06:18;3.20;;;2.60;;
75744;SDS011;74462;51.366;-0.222;2024-01-06T08:07:22;3.50;;;2.70;;
75744;SDS011;74462;51.366;-0.222;2024-01-06T08:08:27;4.40;;;2.80;;
75744;SDS011;74462;51.366;-0.222;2024-01-06T08:09:31;3.90;;;2.80;;
75744;SDS011;74462;51.366;-0.222;2024-01-06T08:10:36;6.40;;;3.60;;
75744;SDS011;74462;51.366;-0.222;2024-01-06T08:11:41;4.00;;;3.00;;
75744;SDS011;74462;51.366;-0.222;2024-01-06T08:12:49;3.80;;;3.20;;
75744;SDS011;74462;51.366;-0.222;2024-01-06T08:13:54;3.60;;;3.30;;
75744;SDS011;74462;51.366;-0.222;2024-01-06T08:14:59;4.40;;;3.40;;
75744;SDS011;74462;51.366;-0.222;2024-01-06T08:16:04;5.30;;;3.30;;
75744;SDS011;74462;51.366;-0.222;2024-01-06T08:17:09;3.40;;;2.70;;
75744;SDS011;74462;51.366;-0.222;2024-01-06T08:18:13;3.60;;;2.50;;
75744;SDS011;74462;51.366;-0.222;2024-01-06T08:19:19;3.60;;;2.80;;
75744;SDS011;74462;51.366;-0.222;2024-01-06T08:20:24;3.70;;;2.40;;
75744;SDS011;74462;51.366;-0.222;2024-01-06T08:21:28;3.80;;;2.90;;
75744;SDS011;74462;51.366;-0.222;2024-01-06T08:22:33;4.10;;;3.00;;
75744;SDS011;74462;51.366;-0.222;2024-01-06T08:23:38;3.80;;;2.50;;
75744;SDS011;74462;51.366;-0.222;2024-01-06T08:24:42;3.70;;;2.70;;
75744;SDS011;74462;51.366;-0.222;2024-01-06T08:25:48;3.10;;;2.30;;
75744;SDS011;74462;51.366;-0.222;2024-01-06T08:26:52;3.20;;;2.90;;
75744;SDS011;74462;51.366;-0.222;2024-01-06T08:27:57;12.70;;;3.90;;
75744;SDS011;74462;51.366;-0.222;2024-01-06T08:29:01;3.30;;;3.00;;
75744;SDS011;74462;51.366;-0.222;2024-01-06T08:30:07;3.00;;;2.40;;
75744;SDS011;74462;51.366;-0.222;2024-01-06T08:31:13;2.90;;;2.50;;
75744;SDS011;74462;51.366;-0.222;2024-01-06T08:32:18;5.00;;;3.50;;
75744;SDS011;74462;51.366;-0.222;2024-01-06T08:33:23;4.00;;;2.70;;
75744;SDS011;74462;51.366;-0.222;2024-01-06T08:34:27;4.20;;;3.00;;
75744;SDS011;74462;51.366;-0.222;2024-01-06T08:35:32;5.10;;;2.90;;
75744;SDS011;74462;51.366;-0.222;2024-01-06T08:36:41;5.20;;;2.90;;
75744;SDS011;74462;51.366;-0.222;2024-01-06T08:37:46;4.30;;;2.80;;
75744;SDS011;74462;51.366;-0.222;2024-01-06T08:38:51;3.20;;;2.90;;
75744;SDS011;74462;51.366;-0.222;2024-01-06T08:39:55;5.90;;;2.30;;
75744;SDS011;74462;51.366;-0.222;2024-01-06T08:41:00;3.30;;;2.50;;
75744;SDS011;74462;51.366;-0.222;2024-01-06T08:42:05;2.80;;;2.40;;
75744;SDS011;74462;51.366;-0.222;2024-01-06T08:43:09;3.60;;;3.10;;
75744;SDS011;74462;51.366;-0.222;2024-01-06T08:44:14;4.90;;;2.80;;
75744;SDS011;74462;51.366;-0.222;2024-01-06T08:45:18;3.40;;;2.30;;
75744;SDS011;74462;51.366;-0.222;2024-01-06T08:46:24;4.80;;;3.50;;
75744;SDS011;74462;51.366;-0.222;2024-01-06T08:47:28;4.50;;;3.40;;
75744;SDS011;74462;51.366;-0.222;2024-01-06T08:48:33;5.10;;;2.90;;
75744;SDS011;74462;51.366;-0.222;2024-01-06T08:49:37;3.90;;;2.50;;
75744;SDS011;74462;51.366;-0.222;2024-01-06T08:50:42;4.90;;;2.50;;
75744;SDS011;74462;51.366;-0.222;2024-01-06T08:51:48;3.40;;;3.00;;
75744;SDS011;74462;51.366;-0.222;2024-01-06T08:52:52;3.00;;;2.60;;
75744;SDS011;74462;51.366;-0.222;2024-01-06T08:53:57;4.40;;;3.50;;
75744;SDS011;74462;51.366;-0.222;2024-01-06T08:55:02;2.60;;;2.40;;
75744;SDS011;74462;51.366;-0.222;2024-01-06T08:56:07;3.30;;;2.60;;
75744;SDS011;74462;51.366;-0.222;2024-01-06T08:57:11;2.90;;;2.60;;
75744;SDS011;74462;51.366;-0.222;2024-01-06T08:58:16;6.40;;;3.40;;
75744;SDS011;74462;51.366;-0.222;2024-01-06T08:59:20;4.80;;;2.80;;
75744;SDS011;74462;51.366;-0.222;2024-01-06T09:00:25;3.40;;;3.10;;
75744;SDS011;74462;51.366;-0.222;2024-01-06T09:01:29;5.50;;;2.60;;
75744;SDS011;74462;51.366;-0.222;2024-01-06T09:02:35;4.40;;;2.40;;
75744;SDS011;74462;51.366;-0.222;2024-01-06T09:03:40;4.40;;;2.70;;
75744;SDS011;74462;51.366;-0.222;2024-01-06T09:04:45;3.90;;;2.30;;
75744;SDS011;74462;51.366;-0.222;2024-01-06T09:05:49;2.90;;;2.60;;
75744;SDS011;74462;51.366;-0.222;2024-01-06T09:06:54;2.60;;;2.20;;
75744;SDS011;74462;51.366;-0.222;2024-01-06T09:07:58;2.30;;;2.10;;
75744;SDS011;74462;51.366;-0.222;2024-01-06T09:09:04;3.70;;;2.30;;
75744;SDS011;74462;51.366;-0.222;2024-01-06T09:10:09;3.00;;;2.40;;
75744;SDS011;74462;51.366;-0.222;2024-01-06T09:11:14;3.10;;;2.30;;
75744;SDS011;74462;51.366;-0.222;2024-01-06T09:12:19;3.40;;;2.80;;
75744;SDS011;74462;51.366;-0.222;2024-01-06T09:13:23;3.50;;;2.90;;
75744;SDS011;74462;51.366;-0.222;2024-01-06T09:14:28;3.10;;;2.30;;
75744;SDS011;74462;51.366;-0.222;2024-01-06T09:15:32;2.30;;;2.10;;
75744;SDS011;74462;51.366;-0.222;2024-01-06T09:16:37;6.30;;;2.70;;
75744;SDS011;74462;51.366;-0.222;2024-01-06T09:17:41;2.40;;;2.20;;
75744;SDS011;74462;51.366;-0.222;2024-01-06T09:18:46;3.20;;;2.60;;
75744;SDS011;74462;51.366;-0.222;2024-01-06T09:19:50;3.00;;;2.00;;
75744;SDS011;74462;51.366;-0.222;2024-01-06T09:20:55;4.00;;;2.70;;
75744;SDS011;74462;51.366;-0.222;2024-01-06T09:22:00;4.20;;;2.70;;
75744;SDS011;74462;51.366;-0.222;2024-01-06T09:23:06;3.90;;;2.40;;
75744;SDS011;74462;51.366;-0.222;2024-01-06T09:24:11;4.80;;;2.20;;
75744;SDS011;74462;51.366;-0.222;2024-01-06T09:25:16;3.40;;;2.10;;
75744;SDS011;74462;51.366;-0.222;2024-01-06T09:26:21;2.00;;;1.80;;
75744;SDS011;74462;51.366;-0.222;2024-01-06T09:27:25;2.40;;;1.90;;
75744;SDS011;74462;51.366;-0.222;2024-01-06T09:28:30;2.20;;;2.00;;
75744;SDS011;74462;51.366;-0.222;2024-01-06T09:29:34;2.70;;;2.50;;
75744;SDS011;74462;51.366;-0.222;2024-01-06T09:30:39;2.90;;;2.00;;
75744;SDS011;74462;51.366;-0.222;2024-01-06T09:31:43;4.70;;;1.80;;
75744;SDS011;74462;51.366;-0.222;2024-01-06T09:32:48;4.20;;;2.70;;
75744;SDS011;74462;51.366;-0.222;2024-01-06T09:33:52;2.70;;;2.30;;
75744;SDS011;74462;51.366;-0.222;2024-01-06T09:34:57;4.40;;;2.60;;
75744;SDS011;74462;51.366;-0.222;2024-01-06T09:36:01;3.70;;;2.60;;
75744;SDS011;74462;51.366;-0.222;2024-01-06T09:37:06;4.00;;;2.30;;
75744;SDS011;74462;51.366;-0.222;2024-01-06T09:38:11;3.80;;;2.60;;
75744;SDS011;74462;51.366;-0.222;2024-01-06T09:39:15;3.10;;;2.80;;
75744;SDS011;74462;51.366;-0.222;2024-01-06T09:40:20;4.30;;;3.20;;
75744;SDS011;74462;51.366;-0.222;2024-01-06T09:41:26;2.70;;;2.20;;
75744;SDS011;74462;51.366;-0.222;2024-01-06T09:42:31;5.00;;;3.00;;
75744;SDS011;74462;51.366;-0.222;2024-01-06T09:43:36;3.80;;;2.50;;
75744;SDS011;74462;51.366;-0.222;2024-01-06T09:44:41;2.60;;;2.40;;
75744;SDS011;74462;51.366;-0.222;2024-01-06T09:45:47;3.20;;;2.80;;
75744;SDS011;74462;51.366;-0.222;2024-01-06T09:46:57;3.10;;;2.60;;
75744;SDS011;74462;51.366;-0.222;2024-01-06T09:48:08;4.00;;;2.70;;
75744;SDS011;74462;51.366;-0.222;2024-01-06T09:49:15;2.60;;;2.30;;
75744;SDS011;74462;51.366;-0.222;2024-01-06T09:50:23;3.00;;;2.20;;
75744;SDS011;74462;51.366;-0.222;2024-01-06T09:51:29;3.60;;;3.30;;
75744;SDS011;74462;51.366;-0.222;2024-01-06T09:52:34;4.80;;;2.50;;
75744;SDS011;74462;51.366;-0.222;2024-01-06T09:53:45;4.40;;;2.50;;
75744;SDS011;74462;51.366;-0.222;2024-01-06T09:54:56;3.50;;;2.30;;
75744;SDS011;74462;51.366;-0.222;2024-01-06T09:56:02;2.30;;;1.90;;